Time;durP1;ratioP1;P1;durP2;ratioP2;P2;SDS_P1;SDS_P2;PMS_P1;PMS_P2;Temp;Humidity;BMP_temperature;BMP_pressure;BME280_temperature;BME280_humidity;BME280_pressure;Samples;Min_cycle;Max_cycle;Signal;HPM_P1;HPM_P2
2022/07/10 00:00:35;;;;;;;13.38;9.45;;;17.00;99.90;;;;;;4814653;29;20372;-75
2022/07/10 00:03:04;;;;;;;12.67;8.73;;;16.90;99.90;;;;;;4813673;29;20114;-78
2022/07/10 00:05:34;;;;;;;15.55;9.55;;;17.10;99.90;;;;;;4813528;29;20057;-74
2022/07/10 00:08:02;;;;;;;13.50;8.93;;;17.00;99.90;;;;;;4810153;29;20054;-73
2022/07/10 00:10:30;;;;;;;16.60;11.18;;;17.00;99.90;;;;;;4812506;29;20042;-76
2022/07/10 00:12:57;;;;;;;13.68;9.57;;;16.90;99.90;;;;;;4812375;29;20402;-72
2022/07/10 00:15:25;;;;;;;16.92;9.27;;;16.90;99.90;;;;;;4811611;29;20046;-76
2022/07/10 00:17:54;;;;;;;12.95;9.18;;;16.90;99.90;;;;;;4802854;29;20038;-75
2022/07/10 00:20:24;;;;;;;14.75;9.95;;;16.90;99.90;;;;;;4810778;29;20051;-75
2022/07/10 00:22:51;;;;;;;13.32;9.30;;;16.90;99.90;;;;;;4813295;29;20046;-75
2022/07/10 00:25:30;;;;;;;17.50;10.02;;;16.90;99.90;;;;;;4811338;29;20596;-74
2022/07/10 00:27:57;;;;;;;12.57;9.45;;;16.80;99.90;;;;;;4808991;29;20134;-72
2022/07/10 00:30:26;;;;;;;17.17;9.98;;;16.70;99.90;;;;;;4813414;29;20042;-72
2022/07/10 00:32:57;;;;;;;14.63;10.00;;;16.80;99.90;;;;;;4812106;29;20039;-75
2022/07/10 00:35:24;;;;;;;12.55;8.82;;;16.80;99.90;;;;;;4812797;29;20053;-79
2022/07/10 00:37:51;;;;;;;12.63;9.45;;;17.00;99.90;;;;;;4808893;29;20462;-73
2022/07/10 00:40:19;;;;;;;16.02;9.30;;;17.00;99.90;;;;;;4809930;29;20055;-72
2022/07/10 00:42:47;;;;;;;13.32;9.13;;;16.90;99.90;;;;;;4813462;29;20041;-75
2022/07/10 00:45:15;;;;;;;13.65;8.60;;;16.90;99.90;;;;;;4811843;29;20069;-72
2022/07/10 00:47:42;;;;;;;16.75;8.75;;;16.80;99.90;;;;;;4809337;29;20046;-73
2022/07/10 00:50:11;;;;;;;15.30;9.23;;;16.70;99.90;;;;;;4811613;29;20145;-72
2022/07/10 00:52:38;;;;;;;14.25;9.38;;;16.80;99.90;;;;;;4812986;29;20038;-71
2022/07/10 00:55:09;;;;;;;15.60;9.80;;;16.80;99.90;;;;;;4812124;29;20066;-75
2022/07/10 00:57:41;;;;;;;12.35;9.57;;;16.80;99.90;;;;;;4810397;29;20070;-72
2022/07/10 01:00:11;;;;;;;12.77;9.57;;;16.90;99.90;;;;;;4811485;29;20060;-74
2022/07/10 01:02:43;;;;;;;12.30;8.77;;;16.80;99.90;;;;;;4812372;29;20038;-73
2022/07/10 01:05:11;;;;;;;11.93;7.82;;;16.70;99.90;;;;;;4804637;29;20046;-72
2022/07/10 01:07:40;;;;;;;13.13;8.73;;;16.80;99.90;;;;;;4808936;29;20039;-73
2022/07/10 01:10:07;;;;;;;17.17;9.20;;;17.00;99.90;;;;;;4811848;29;20069;-73
2022/07/10 01:12:36;;;;;;;12.77;8.95;;;16.80;99.90;;;;;;4810947;29;20041;-78
2022/07/10 01:15:04;;;;;;;13.95;8.80;;;16.70;99.90;;;;;;4812167;29;20421;-82
2022/07/10 01:17:32;;;;;;;13.45;9.75;;;16.60;99.90;;;;;;4810076;29;20078;-82
2022/07/10 01:20:05;;;;;;;11.32;8.00;;;16.50;99.90;;;;;;4811582;29;20055;-81
2022/07/10 01:22:33;;;;;;;13.32;8.20;;;16.50;99.90;;;;;;4810267;29;20525;-80
2022/07/10 01:25:00;;;;;;;12.15;8.52;;;16.60;99.90;;;;;;4812084;29;20054;-73
2022/07/10 01:27:28;;;;;;;16.30;7.82;;;16.60;99.90;;;;;;4811854;29;20649;-75
2022/07/10 01:29:55;;;;;;;11.68;8.40;;;16.60;99.90;;;;;;4811552;29;20054;-79
2022/07/10 01:32:23;;;;;;;13.30;8.70;;;16.60;99.90;;;;;;4811407;29;20050;-75
2022/07/10 01:34:50;;;;;;;14.70;9.75;;;16.60;99.90;;;;;;4811340;29;20495;-76
2022/07/10 01:37:18;;;;;;;11.55;8.98;;;16.60;99.90;;;;;;4807874;29;20046;-76
2022/07/10 01:39:45;;;;;;;13.77;9.00;;;16.50;99.90;;;;;;4811183;29;20046;-74
2022/07/10 01:42:12;;;;;;;11.90;8.82;;;16.60;99.90;;;;;;4812380;29;20061;-73
2022/07/10 01:44:40;;;;;;;13.60;8.85;;;16.60;99.90;;;;;;4810568;29;20046;-75
2022/07/10 01:47:08;;;;;;;10.38;8.13;;;16.50;99.90;;;;;;4809571;29;20403;-78
2022/07/10 01:49:37;;;;;;;14.65;8.55;;;16.60;99.90;;;;;;4811470;29;20439;-79
2022/07/10 01:52:05;;;;;;;11.32;8.73;;;16.60;99.90;;;;;;4811016;29;20047;-84
2022/07/10 01:54:33;;;;;;;15.13;9.25;;;16.60;99.90;;;;;;4811437;29;20054;-72
2022/07/10 01:57:00;;;;;;;12.73;8.82;;;16.60;99.90;;;;;;4808907;29;20034;-82
2022/07/10 01:59:27;;;;;;;12.63;8.52;;;16.60;99.90;;;;;;4810145;29;20418;-78
2022/07/10 02:01:55;;;;;;;13.00;9.15;;;16.70;99.90;;;;;;4811209;29;20080;-72
2022/07/10 02:04:40;;;;;;;13.40;9.45;;;16.70;99.90;;;;;;4802315;29;20053;-73
2022/07/10 02:07:12;;;;;;;13.80;9.40;;;16.60;99.90;;;;;;4795408;29;20050;-74
2022/07/10 02:09:43;;;;;;;16.10;9.35;;;16.70;99.90;;;;;;4795171;29;20462;-76
2022/07/10 02:12:12;;;;;;;12.57;8.82;;;16.70;99.90;;;;;;4795189;29;20064;-73
2022/07/10 02:14:41;;;;;;;11.87;8.03;;;16.50;99.90;;;;;;4803870;29;20054;-80
2022/07/10 02:17:08;;;;;;;14.73;8.73;;;16.80;99.90;;;;;;4799063;29;20408;-76
2022/07/10 02:19:36;;;;;;;13.52;8.73;;;16.80;99.90;;;;;;4796147;29;20047;-81
2022/07/10 02:22:06;;;;;;;14.15;8.27;;;16.80;99.90;;;;;;4800814;29;20401;-78
2022/07/10 02:24:33;;;;;;;15.57;8.80;;;16.80;99.90;;;;;;4816201;29;20056;-75
2022/07/10 02:27:00;;;;;;;11.80;8.60;;;16.70;99.90;;;;;;4786291;29;20086;-74
2022/07/10 02:29:28;;;;;;;13.57;9.25;;;16.80;99.90;;;;;;4794437;29;20053;-72
2022/07/10 02:31:55;;;;;;;11.63;8.10;;;16.70;99.90;;;;;;4811373;29;20411;-75
2022/07/10 02:34:26;;;;;;;12.00;8.05;;;16.70;99.90;;;;;;4796141;29;20057;-76
2022/07/10 02:36:53;;;;;;;11.93;8.43;;;16.90;99.90;;;;;;4801557;29;20141;-72
2022/07/10 02:39:23;;;;;;;15.85;7.90;;;16.80;99.90;;;;;;4800394;29;20038;-76
2022/07/10 02:41:50;;;;;;;13.32;8.10;;;16.70;99.90;;;;;;4794630;29;20496;-72
2022/07/10 02:44:18;;;;;;;11.25;7.85;;;16.60;99.90;;;;;;4798276;29;20137;-74
2022/07/10 02:46:46;;;;;;;11.40;8.07;;;16.70;99.90;;;;;;4800854;29;20054;-72
2022/07/10 02:49:13;;;;;;;12.63;8.18;;;16.80;99.90;;;;;;4802108;29;20454;-73
2022/07/10 02:51:41;;;;;;;17.88;10.23;;;16.80;99.90;;;;;;4806391;29;20456;-76
2022/07/10 02:54:08;;;;;;;13.10;8.73;;;16.70;99.90;;;;;;4798753;29;20051;-80
2022/07/10 02:56:36;;;;;;;10.45;6.70;;;16.60;99.90;;;;;;4790373;29;20047;-78
2022/07/10 02:59:04;;;;;;;15.18;8.30;;;16.80;99.90;;;;;;4797788;29;20415;-74
2022/07/10 03:01:32;;;;;;;13.40;8.02;;;17.00;99.90;;;;;;4791248;29;20042;-80
2022/07/10 03:04:01;;;;;;;11.60;8.13;;;16.80;99.90;;;;;;4782399;29;20104;-76
2022/07/10 03:06:30;;;;;;;11.53;8.10;;;16.80;99.90;;;;;;4796326;29;20127;-77
2022/07/10 03:08:57;;;;;;;16.02;7.85;;;16.80;99.90;;;;;;4811215;29;20053;-74
2022/07/10 03:11:25;;;;;;;14.88;7.97;;;16.90;99.90;;;;;;4787327;29;20054;-82
2022/07/10 03:13:53;;;;;;;12.52;8.38;;;16.80;99.90;;;;;;4798732;29;20057;-76
2022/07/10 03:16:21;;;;;;;12.40;9.18;;;16.70;99.90;;;;;;4789267;29;20051;-74
2022/07/10 03:18:48;;;;;;;15.00;8.98;;;16.80;99.90;;;;;;4804167;29;20055;-74
2022/07/10 03:21:16;;;;;;;17.98;10.27;;;16.80;99.90;;;;;;4799916;29;20046;-73
2022/07/10 03:23:43;;;;;;;14.70;9.63;;;16.70;99.90;;;;;;4813300;29;20043;-74
2022/07/10 03:26:11;;;;;;;12.27;9.10;;;16.70;99.90;;;;;;4812941;29;20050;-80
2022/07/10 03:28:38;;;;;;;12.73;8.18;;;16.70;99.90;;;;;;4796992;29;20042;-73
2022/07/10 03:31:06;;;;;;;11.93;8.40;;;16.80;99.90;;;;;;4789800;29;20071;-74
2022/07/10 03:33:33;;;;;;;14.65;9.48;;;16.70;99.90;;;;;;4812633;29;20050;-73
2022/07/10 03:36:03;;;;;;;12.53;9.13;;;16.80;99.90;;;;;;4802897;29;20046;-76
2022/07/10 03:38:31;;;;;;;16.02;8.18;;;16.90;99.90;;;;;;4812571;29;20523;-79
2022/07/10 03:40:58;;;;;;;12.02;8.50;;;16.80;99.90;;;;;;4799485;29;20065;-83
2022/07/10 03:43:26;;;;;;;12.73;7.82;;;16.90;99.90;;;;;;4812686;29;20380;-78
2022/07/10 03:45:54;;;;;;;16.38;9.02;;;16.90;99.90;;;;;;4789631;29;20055;-74
2022/07/10 03:48:21;;;;;;;13.00;8.32;;;16.90;99.90;;;;;;4804352;29;20038;-78
2022/07/10 03:50:52;;;;;;;15.45;8.38;;;16.90;99.90;;;;;;4812922;29;20047;-77
2022/07/10 03:53:19;;;;;;;17.65;8.13;;;16.90;99.90;;;;;;4812474;29;20042;-73
2022/07/10 03:55:47;;;;;;;11.45;8.38;;;16.90;99.90;;;;;;4810441;29;21241;-80
2022/07/10 03:58:14;;;;;;;11.75;7.80;;;16.90;99.90;;;;;;4810967;29;20392;-75
2022/07/10 04:00:43;;;;;;;10.77;7.97;;;17.00;99.90;;;;;;4790345;29;20054;-75
2022/07/10 04:03:11;;;;;;;11.57;8.07;;;17.00;99.90;;;;;;4797288;29;20409;-74
2022/07/10 04:05:38;;;;;;;14.35;8.45;;;17.10;99.90;;;;;;4795178;29;20075;-78
2022/07/10 04:08:07;;;;;;;10.32;7.40;;;17.10;99.90;;;;;;4803109;29;20042;-75
2022/07/10 04:10:35;;;;;;;13.60;7.90;;;17.20;99.90;;;;;;4797308;29;20050;-77
2022/07/10 04:13:02;;;;;;;10.77;8.38;;;17.20;99.90;;;;;;4819811;29;20054;-76
2022/07/10 04:15:30;;;;;;;11.65;7.90;;;17.20;99.90;;;;;;4796830;29;20393;-78
2022/07/10 04:17:57;;;;;;;11.00;7.43;;;17.30;99.90;;;;;;4810858;29;20049;-74
2022/07/10 04:20:25;;;;;;;12.35;6.82;;;17.40;99.90;;;;;;4812585;29;20082;-73
2022/07/10 04:22:52;;;;;;;11.93;7.68;;;17.60;99.90;;;;;;4813249;29;20492;-74
2022/07/10 04:25:20;;;;;;;12.40;7.53;;;17.50;99.90;;;;;;4819581;29;20074;-81
2022/07/10 04:27:47;;;;;;;11.35;6.78;;;17.60;99.90;;;;;;4800237;29;20050;-74
2022/07/10 04:30:15;;;;;;;15.98;6.97;;;17.80;99.90;;;;;;4813664;29;20125;-74
2022/07/10 04:32:42;;;;;;;14.57;8.13;;;17.80;99.90;;;;;;4812981;29;20043;-75
2022/07/10 04:35:10;;;;;;;12.68;7.47;;;17.70;99.90;;;;;;4804118;29;20047;-79
2022/07/10 04:37:37;;;;;;;10.52;6.63;;;17.80;99.90;;;;;;4809931;29;20072;-73
2022/07/10 04:40:05;;;;;;;12.57;6.32;;;17.90;99.90;;;;;;4812612;29;20046;-74
2022/07/10 04:42:33;;;;;;;13.23;6.85;;;18.00;99.90;;;;;;4813343;29;20065;-74
2022/07/10 04:45:02;;;;;;;9.93;6.40;;;18.10;99.90;;;;;;4813477;29;20042;-74
2022/07/10 04:47:29;;;;;;;14.32;7.50;;;18.10;99.90;;;;;;4799786;29;20051;-73
2022/07/10 04:49:56;;;;;;;12.07;6.85;;;18.20;99.90;;;;;;4811754;29;20104;-75
2022/07/10 04:52:24;;;;;;;10.45;6.18;;;18.30;99.90;;;;;;4797026;29;20039;-74
2022/07/10 04:54:51;;;;;;;9.88;6.78;;;18.30;99.90;;;;;;4812296;29;20103;-75
2022/07/10 04:57:19;;;;;;;10.05;7.30;;;18.50;99.90;;;;;;4811659;29;20514;-77
2022/07/10 04:59:46;;;;;;;10.35;5.03;;;18.50;99.90;;;;;;4802580;29;20042;-74
2022/07/10 05:02:13;;;;;;;8.98;4.65;;;18.60;99.90;;;;;;4804479;29;20050;-74
2022/07/10 05:04:40;;;;;;;8.13;4.45;;;18.70;99.90;;;;;;4796380;29;20061;-84
2022/07/10 05:07:08;;;;;;;6.65;3.90;;;19.00;99.90;;;;;;4808843;29;20069;-72
2022/07/10 05:09:35;;;;;;;7.50;4.15;;;19.20;99.90;;;;;;4811392;29;20491;-75
2022/07/10 05:12:03;;;;;;;6.13;3.10;;;19.40;99.90;;;;;;4811693;29;20066;-76
2022/07/10 05:14:30;;;;;;;8.40;3.35;;;19.60;99.90;;;;;;4811285;29;20507;-75
2022/07/10 05:16:58;;;;;;;6.13;3.10;;;19.70;99.90;;;;;;4787446;29;20488;-78
2022/07/10 05:19:25;;;;;;;7.85;3.47;;;19.80;99.90;;;;;;4811636;29;20489;-75
2022/07/10 05:21:52;;;;;;;10.25;2.83;;;19.80;99.90;;;;;;4811130;29;20057;-76
2022/07/10 05:24:19;;;;;;;7.07;3.55;;;19.90;99.90;;;;;;4812613;29;20063;-76
2022/07/10 05:26:47;;;;;;;7.13;3.60;;;19.90;99.90;;;;;;4811834;29;20042;-73
2022/07/10 05:29:14;;;;;;;8.88;2.88;;;19.80;99.90;;;;;;4811087;29;20043;-76
2022/07/10 05:31:41;;;;;;;6.50;2.75;;;19.90;99.90;;;;;;4812363;29;20042;-76
2022/07/10 05:34:09;;;;;;;7.07;3.10;;;19.90;99.90;;;;;;4811084;29;20046;-73
2022/07/10 05:36:36;;;;;;;8.05;2.95;;;20.00;99.90;;;;;;4809285;29;20050;-78
2022/07/10 05:39:04;;;;;;;6.18;2.80;;;20.10;99.90;;;;;;4802564;29;20103;-73
2022/07/10 05:41:32;;;;;;;8.80;2.97;;;20.20;99.90;;;;;;4812587;29;20061;-82
2022/07/10 05:44:00;;;;;;;4.32;2.78;;;20.20;99.90;;;;;;4811378;29;20630;-75
2022/07/10 05:46:27;;;;;;;6.35;2.35;;;20.10;99.90;;;;;;4795615;29;20062;-76
2022/07/10 05:48:55;;;;;;;5.40;2.75;;;20.20;99.90;;;;;;4811380;29;20102;-80
2022/07/10 05:51:22;;;;;;;7.38;2.70;;;20.30;99.90;;;;;;4812199;29;20047;-74
2022/07/10 05:54:05;;;;;;;6.10;3.17;;;20.40;99.90;;;;;;4811233;29;20468;-86
2022/07/10 05:56:32;;;;;;;7.22;3.60;;;20.40;99.90;;;;;;4809649;29;20047;-80
2022/07/10 05:58:59;;;;;;;6.10;3.00;;;20.40;99.90;;;;;;4811387;29;20400;-81
2022/07/10 06:01:28;;;;;;;6.93;2.63;;;20.40;99.90;;;;;;4811358;29;20082;-89
2022/07/10 06:03:55;;;;;;;5.75;3.15;;;20.30;99.90;;;;;;4809407;29;20457;-80
2022/07/10 06:06:23;;;;;;;6.68;3.03;;;20.40;99.90;;;;;;4807415;29;20039;-82
2022/07/10 06:08:50;;;;;;;6.25;2.58;;;20.30;99.90;;;;;;4802017;29;20050;-74
2022/07/10 06:11:18;;;;;;;5.13;2.80;;;20.40;99.90;;;;;;4811420;29;20062;-80
2022/07/10 06:13:45;;;;;;;5.70;2.90;;;20.40;99.90;;;;;;4809398;29;20126;-79
2022/07/10 06:16:12;;;;;;;6.57;2.70;;;20.40;99.90;;;;;;4809239;29;20061;-79
2022/07/10 06:18:40;;;;;;;6.25;2.83;;;20.40;99.90;;;;;;4808873;29;20474;-75
2022/07/10 06:21:08;;;;;;;5.78;2.40;;;20.50;99.90;;;;;;4810870;29;20053;-77
2022/07/10 06:23:35;;;;;;;5.13;2.95;;;20.50;99.90;;;;;;4802439;29;20051;-80
2022/07/10 06:26:03;;;;;;;5.28;2.60;;;20.50;99.90;;;;;;4807716;29;20038;-72
2022/07/10 06:28:30;;;;;;;4.93;2.60;;;20.50;99.90;;;;;;4809814;29;20054;-84
2022/07/10 06:30:58;;;;;;;5.22;2.90;;;20.60;99.90;;;;;;4811647;29;20095;-82
2022/07/10 06:33:27;;;;;;;7.40;2.60;;;20.60;99.90;;;;;;4811368;29;20077;-76
2022/07/10 06:35:54;;;;;;;8.20;2.67;;;20.70;99.90;;;;;;4810861;29;20038;-80
2022/07/10 06:38:22;;;;;;;6.43;2.53;;;20.70;99.90;;;;;;4809617;29;20051;-79
2022/07/10 06:40:51;;;;;;;4.10;2.20;;;20.80;99.90;;;;;;4801964;29;20070;-82
2022/07/10 06:43:18;;;;;;;4.25;2.53;;;20.70;99.90;;;;;;4811458;29;20385;-78
2022/07/10 06:45:46;;;;;;;7.90;2.80;;;20.70;99.90;;;;;;4811670;29;20046;-82
2022/07/10 06:48:13;;;;;;;6.30;2.65;;;20.80;99.90;;;;;;4806398;29;20412;-74
2022/07/10 06:50:41;;;;;;;8.13;2.95;;;20.80;99.90;;;;;;4811291;29;20035;-77
2022/07/10 06:53:09;;;;;;;4.78;2.55;;;20.90;99.90;;;;;;4812001;29;20054;-81
2022/07/10 06:55:38;;;;;;;6.85;2.58;;;20.90;99.90;;;;;;4802449;29;20043;-83
2022/07/10 06:58:05;;;;;;;5.70;2.40;;;20.80;99.80;;;;;;4808490;29;20054;-80
2022/07/10 07:00:33;;;;;;;7.43;2.88;;;20.80;99.90;;;;;;4809679;29;20038;-85
2022/07/10 07:03:00;;;;;;;5.78;2.78;;;20.90;99.90;;;;;;4787143;29;20054;-79
2022/07/10 07:05:28;;;;;;;8.40;2.63;;;20.90;99.90;;;;;;4812331;29;20038;-84
2022/07/10 07:07:56;;;;;;;6.80;2.80;;;21.00;99.90;;;;;;4810177;29;20047;-83
2022/07/10 07:10:23;;;;;;;9.13;3.78;;;20.90;99.90;;;;;;4809566;29;20054;-80
2022/07/10 07:12:51;;;;;;;5.85;2.50;;;20.90;99.90;;;;;;4811968;29;20407;-79
2022/07/10 07:15:20;;;;;;;9.60;2.90;;;20.90;99.90;;;;;;4809565;29;20576;-72
2022/07/10 07:18:07;;;;;;;4.82;2.58;;;20.90;99.90;;;;;;4808395;29;20412;-76
2022/07/10 07:23:22;;;;;;;8.57;2.83;;;20.90;99.60;;;;;;4810548;29;20051;-79
2022/07/10 07:25:50;;;;;;;8.32;2.80;;;21.00;99.80;;;;;;4811221;29;20074;-72
2022/07/10 07:28:19;;;;;;;5.22;2.75;;;21.10;99.20;;;;;;4793914;29;20058;-73
2022/07/10 07:30:49;;;;;;;7.07;2.88;;;21.20;98.60;;;;;;4813159;29;20043;-76
2022/07/10 07:33:17;;;;;;;;;;;21.30;98.80;;;;;;4813002;29;20038;-74
2022/07/10 07:35:44;;;;;;;11.38;3.00;;;21.30;98.30;;;;;;4814083;29;19929;-72
2022/07/10 07:38:11;;;;;;;6.00;2.65;;;21.30;98.20;;;;;;4811327;29;20054;-72
2022/07/10 07:40:39;;;;;;;6.13;2.60;;;21.40;98.40;;;;;;4813980;29;20042;-72
2022/07/10 07:43:06;;;;;;;5.68;2.65;;;21.40;98.30;;;;;;4813660;29;20058;-76
2022/07/10 07:45:34;;;;;;;7.88;2.53;;;21.60;98.90;;;;;;4813593;29;20038;-82
2022/07/10 07:48:01;;;;;;;4.72;2.67;;;21.70;99.20;;;;;;4811633;29;20055;-74
2022/07/10 07:50:34;;;;;;;6.38;2.75;;;21.60;97.60;;;;;;4812008;29;20039;-76
2022/07/10 07:53:03;;;;;;;3.92;2.40;;;21.60;98.00;;;;;;4813331;29;20053;-77
2022/07/10 07:55:33;;;;;;;5.30;2.60;;;21.60;98.30;;;;;;4813600;29;20087;-78
2022/07/10 07:58:02;;;;;;;4.50;2.40;;;21.60;97.20;;;;;;4812220;29;20066;-76
2022/07/10 08:00:30;;;;;;;6.30;2.63;;;21.70;96.80;;;;;;4813439;29;20457;-77
2022/07/10 08:02:58;;;;;;;5.15;2.65;;;21.70;96.90;;;;;;4797272;29;20042;-82
2022/07/10 08:05:26;;;;;;;6.38;2.65;;;21.90;97.40;;;;;;4803105;29;20719;-78
2022/07/10 08:07:56;;;;;;;6.10;2.20;;;21.90;96.70;;;;;;4811341;29;20407;-76
2022/07/10 08:10:26;;;;;;;6.03;2.80;;;22.00;95.70;;;;;;4813715;29;20058;-79
2022/07/10 08:12:54;;;;;;;4.22;2.40;;;22.10;96.00;;;;;;4813175;29;20487;-74
2022/07/10 08:15:22;;;;;;;5.10;2.92;;;22.10;95.20;;;;;;4803284;29;20043;-76
2022/07/10 08:17:55;;;;;;;6.22;3.13;;;22.10;94.60;;;;;;4811030;29;20049;-76
2022/07/10 08:20:25;;;;;;;6.88;2.97;;;22.10;95.10;;;;;;4812567;29;20461;-73
2022/07/10 08:22:53;;;;;;;8.15;2.90;;;22.10;94.80;;;;;;4813254;29;20042;-73
2022/07/10 08:25:29;;;;;;;9.10;2.45;;;22.20;94.70;;;;;;4811725;29;20053;-74
2022/07/10 08:28:05;;;;;;;7.38;2.45;;;22.10;94.40;;;;;;4810475;29;20070;-76
2022/07/10 08:30:33;;;;;;;5.25;2.13;;;22.10;94.80;;;;;;4813869;29;20117;-73
2022/07/10 08:33:00;;;;;;;6.75;2.67;;;22.10;93.80;;;;;;4813063;29;20042;-81
2022/07/10 08:35:28;;;;;;;8.10;2.20;;;22.10;93.80;;;;;;4803215;29;20695;-79
2022/07/10 08:37:55;;;;;;;8.02;3.63;;;22.30;94.00;;;;;;4808851;29;20043;-77
2022/07/10 08:40:23;;;;;;;6.40;2.72;;;22.40;94.40;;;;;;4813215;29;20054;-80
2022/07/10 08:42:50;;;;;;;5.32;2.40;;;22.40;93.40;;;;;;4804995;29;20055;-75
2022/07/10 08:45:17;;;;;;;6.15;2.20;;;22.40;93.00;;;;;;4804322;29;20039;-79
2022/07/10 08:47:45;;;;;;;10.95;2.75;;;22.30;93.80;;;;;;4811263;29;20427;-75
2022/07/10 08:50:24;;;;;;;6.78;2.45;;;22.50;92.60;;;;;;4812314;29;20044;-80
2022/07/10 08:53:04;;;;;;;5.50;2.55;;;22.40;91.80;;;;;;4796544;29;20099;-79
2022/07/10 08:55:32;;;;;;;5.97;2.15;;;22.30;92.10;;;;;;4813197;29;20050;-75
2022/07/10 08:58:00;;;;;;;7.20;4.82;;;22.30;92.00;;;;;;4811430;29;20051;-85
2022/07/10 09:00:28;;;;;;;20.83;11.82;;;22.40;92.90;;;;;;4812458;29;20039;-85
2022/07/10 09:02:56;;;;;;;13.30;8.73;;;22.60;93.40;;;;;;4805309;29;20042;-85
2022/07/10 09:05:25;;;;;;;5.00;2.88;;;22.80;92.70;;;;;;4812772;29;20050;-75
2022/07/10 09:07:54;;;;;;;4.82;2.55;;;22.80;91.60;;;;;;4797145;29;20062;-75
2022/07/10 09:10:25;;;;;;;6.68;3.03;;;22.90;91.90;;;;;;4810929;29;20046;-80
2022/07/10 09:12:55;;;;;;;5.80;2.40;;;23.10;93.60;;;;;;4804688;29;20514;-82
2022/07/10 09:15:25;;;;;;;5.20;2.63;;;22.90;91.60;;;;;;4813584;29;20429;-76
2022/07/10 09:18:12;;;;;;;6.10;2.57;;;23.00;91.50;;;;;;4808094;29;20531;-77
2022/07/10 09:20:40;;;;;;;4.47;2.45;;;22.90;91.40;;;;;;4811361;29;20399;-84
2022/07/10 09:23:22;;;;;;;9.07;4.40;;;22.80;91.10;;;;;;4813281;29;20047;-75
2022/07/10 09:25:52;;;;;;;6.45;3.40;;;22.70;91.50;;;;;;4812998;29;20066;-80
2022/07/10 09:28:21;;;;;;;9.68;4.25;;;22.70;91.20;;;;;;4809277;29;20043;-77
2022/07/10 09:30:49;;;;;;;5.40;2.67;;;22.80;91.40;;;;;;4817217;29;20059;-74
2022/07/10 09:33:27;;;;;;;5.68;2.70;;;22.90;91.70;;;;;;4795655;29;20049;-80
2022/07/10 09:36:11;;;;;;;6.35;2.28;;;23.00;92.30;;;;;;4810269;29;20059;-81
2022/07/10 09:38:44;;;;;;;5.78;2.75;;;23.00;90.90;;;;;;4787079;29;20377;-80
2022/07/10 09:41:31;;;;;;;8.55;2.85;;;23.10;91.70;;;;;;4813446;29;20118;-83
2022/07/10 09:44:04;;;;;;;5.05;2.70;;;23.20;91.90;;;;;;4810481;29;20053;-79
2022/07/10 09:46:36;;;;;;;5.13;2.78;;;23.20;92.20;;;;;;4809769;29;20051;-78
2022/07/10 09:49:11;;;;;;;7.90;4.65;;;23.40;92.20;;;;;;4810652;29;20047;-77
2022/07/10 09:51:44;;;;;;;7.75;4.80;;;23.40;91.00;;;;;;4802803;29;20061;-75
2022/07/10 09:54:16;;;;;;;5.32;3.33;;;23.40;90.70;;;;;;4794736;29;20505;-76
2022/07/10 09:56:51;;;;;;;18.33;10.00;;;23.50;90.70;;;;;;4804791;29;20089;-79
2022/07/10 09:59:20;;;;;;;17.15;8.35;;;23.60;90.90;;;;;;4811155;29;20118;-82
2022/07/10 10:01:48;;;;;;;10.13;3.10;;;23.90;91.10;;;;;;4811468;29;20070;-80
2022/07/10 10:04:21;;;;;;;5.25;2.60;;;23.90;91.00;;;;;;4811080;29;20114;-81
2022/07/10 10:07:02;;;;;;;8.32;2.70;;;23.80;88.90;;;;;;4808493;29;20062;-76
2022/07/10 10:09:37;;;;;;;15.23;7.85;;;23.40;89.10;;;;;;4781341;29;20107;-79
2022/07/10 10:12:12;;;;;;;8.95;3.90;;;23.30;90.70;;;;;;4802988;29;20069;-82
2022/07/10 10:14:40;;;;;;;6.32;2.60;;;23.30;90.00;;;;;;4802361;29;20051;-80
2022/07/10 10:17:11;;;;;;;9.23;2.85;;;23.30;90.80;;;;;;4801480;29;20553;-79
2022/07/10 10:22:28;;;;;;;12.43;2.80;;;23.10;90.70;;;;;;4811528;29;20487;-78
2022/07/10 10:24:57;;;;;;;5.80;2.92;;;23.50;91.10;;;;;;4795038;29;20047;-75
2022/07/10 10:27:28;;;;;;;8.30;3.85;;;23.80;90.40;;;;;;4815391;29;20045;-82
2022/07/10 10:29:56;;;;;;;4.30;2.42;;;24.20;88.20;;;;;;4795093;29;20044;-77
2022/07/10 10:32:24;;;;;;;7.63;3.05;;;24.20;86.70;;;;;;4779719;29;20042;-76
2022/07/10 10:34:58;;;;;;;17.67;12.20;;;24.30;87.30;;;;;;4796621;29;20039;-81
2022/07/10 10:37:37;;;;;;;13.77;10.18;;;24.40;85.40;;;;;;4782993;29;20050;-76
2022/07/10 10:40:07;;;;;;;15.45;8.70;;;24.50;84.70;;;;;;4789190;29;20064;-82
2022/07/10 10:42:42;;;;;;;8.55;4.13;;;24.80;86.60;;;;;;4789803;29;20054;-85
2022/07/10 10:45:32;;;;;;;40.88;25.88;;;24.50;84.60;;;;;;4811913;29;20082;-84
2022/07/10 10:48:05;;;;;;;7.50;3.38;;;24.60;84.90;;;;;;4801445;29;20564;-74
2022/07/10 10:50:53;;;;;;;5.30;2.40;;;24.70;84.30;;;;;;4803431;29;20072;-78
2022/07/10 10:53:31;;;;;;;3.60;2.30;;;24.70;84.40;;;;;;4795146;29;20050;-78
2022/07/10 10:56:07;;;;;;;5.75;2.30;;;25.00;83.70;;;;;;4794761;29;20137;-73
2022/07/10 10:58:41;;;;;;;8.65;4.15;;;24.70;81.70;;;;;;4799473;29;20055;-76
2022/07/10 11:01:21;;;;;;;7.00;2.83;;;24.90;82.20;;;;;;4802608;29;20046;-72
2022/07/10 11:04:12;;;;;;;5.00;2.65;;;25.00;81.90;;;;;;4801837;29;20051;-74
2022/07/10 11:06:46;;;;;;;6.15;3.33;;;25.00;81.40;;;;;;4795985;29;20038;-82
2022/07/10 11:09:27;;;;;;;5.18;2.97;;;25.20;81.70;;;;;;4811741;29;20052;-79
2022/07/10 11:12:24;;;;;;;6.72;2.88;;;25.60;81.40;;;;;;4806463;29;20129;-79
2022/07/10 11:14:54;;;;;;;6.38;3.20;;;26.00;82.10;;;;;;4798221;29;20052;-82
2022/07/10 11:17:27;;;;;;;5.20;2.70;;;26.10;80.90;;;;;;4797278;29;20070;-79
2022/07/10 11:19:55;;;;;;;4.72;2.28;;;26.10;79.20;;;;;;4797766;29;20050;-78
2022/07/10 11:22:33;;;;;;;3.45;2.00;;;25.90;78.50;;;;;;4812268;29;20050;-81
2022/07/10 11:25:50;;;;;;;5.20;2.40;;;25.40;75.70;;;;;;4799838;29;20050;-80
2022/07/10 11:28:24;;;;;;;7.97;2.20;;;25.40;79.10;;;;;;4783398;29;20149;-74
2022/07/10 11:30:54;;;;;;;4.88;2.47;;;25.60;77.90;;;;;;4796001;29;20060;-81
2022/07/10 11:33:26;;;;;;;8.07;2.35;;;25.90;79.60;;;;;;4797583;29;20484;-73
2022/07/10 11:35:54;;;;;;;4.05;2.10;;;26.10;79.10;;;;;;4783060;29;20050;-85
2022/07/10 11:38:27;;;;;;;4.10;2.42;;;26.30;75.80;;;;;;4796642;29;20099;-84
2022/07/10 11:40:55;;;;;;;7.82;2.85;;;26.40;76.40;;;;;;4796907;29;20042;-80
2022/07/10 11:43:25;;;;;;;4.75;2.00;;;26.40;73.10;;;;;;4811583;29;20050;-75
2022/07/10 11:45:59;;;;;;;;;;;26.20;73.60;;;;;;4798422;29;20173;-80
2022/07/10 11:48:26;;;;;;;4.63;2.22;;;26.20;74.30;;;;;;4797466;29;20373;-77
2022/07/10 11:50:54;;;;;;;6.53;2.25;;;26.40;74.50;;;;;;4799401;29;20391;-81
2022/07/10 11:53:26;;;;;;;5.07;1.73;;;26.20;73.40;;;;;;4819996;29;20389;-87
2022/07/10 11:55:54;;;;;;;4.25;2.33;;;26.50;74.20;;;;;;4783697;29;20042;-77
2022/07/10 11:58:22;;;;;;;11.00;1.90;;;26.40;72.80;;;;;;4782085;29;20060;-86
2022/07/10 12:01:08;;;;;;;6.40;2.88;;;25.90;72.00;;;;;;4784244;29;20057;-84
2022/07/10 12:03:36;;;;;;;4.47;2.35;;;25.90;73.00;;;;;;4778937;29;20065;-76
2022/07/10 12:06:06;;;;;;;4.63;2.17;;;26.10;72.90;;;;;;4798078;29;20134;-80
2022/07/10 12:08:46;;;;;;;6.43;1.88;;;26.10;71.50;;;;;;4806126;29;20050;-83
2022/07/10 12:11:17;;;;;;;7.18;3.00;;;25.90;72.00;;;;;;4788594;29;20049;-81
2022/07/10 12:13:51;;;;;;;4.80;2.70;;;26.10;71.10;;;;;;4810780;29;20146;-78
2022/07/10 12:16:18;;;;;;;3.45;1.90;;;26.40;71.10;;;;;;4798803;29;20050;-79
2022/07/10 12:18:46;;;;;;;164.00;114.13;;;26.60;70.80;;;;;;4797072;29;20141;-76
2022/07/10 12:21:17;;;;;;;16.45;12.23;;;27.00;71.80;;;;;;4804276;29;20073;-76
2022/07/10 12:23:48;;;;;;;5.65;3.03;;;27.10;69.90;;;;;;4790870;29;21221;-79
2022/07/10 12:26:20;;;;;;;5.43;2.10;;;27.00;69.90;;;;;;4797776;29;20420;-76
2022/07/10 12:28:52;;;;;;;5.57;1.95;;;27.20;69.30;;;;;;4781693;29;20057;-81
2022/07/10 12:31:24;;;;;;;;;;;26.90;68.60;;;;;;4797039;29;20508;-77
2022/07/10 12:33:54;;;;;;;50.15;40.15;;;26.80;69.80;;;;;;4804431;29;20040;-80
2022/07/10 12:36:23;;;;;;;7.15;4.32;;;27.40;70.40;;;;;;4807087;29;20089;-80
2022/07/10 12:38:58;;;;;;;5.72;1.95;;;27.60;68.70;;;;;;4804586;29;20047;-81
2022/07/10 12:41:26;;;;;;;5.30;2.10;;;27.50;70.00;;;;;;4789887;29;20043;-78
2022/07/10 12:43:56;;;;;;;6.30;2.05;;;27.60;71.60;;;;;;4788329;29;20500;-82
2022/07/10 12:46:24;;;;;;;5.38;1.98;;;27.40;71.30;;;;;;4787940;29;20050;-75
2022/07/10 12:49:06;;;;;;;4.90;1.80;;;27.10;69.90;;;;;;4801051;29;20095;-77
2022/07/10 12:51:44;;;;;;;5.07;2.17;;;27.20;70.00;;;;;;4803707;29;20039;-75
2022/07/10 12:54:35;;;;;;;6.00;2.25;;;27.00;69.90;;;;;;4784670;29;20046;-77
2022/07/10 12:57:05;;;;;;;32.90;23.67;;;26.70;71.10;;;;;;4802379;29;20153;-80
2022/07/10 12:59:35;;;;;;;19.10;12.60;;;26.60;71.00;;;;;;4812521;29;20050;-77
2022/07/10 13:02:17;;;;;;;;;;;26.70;70.50;;;;;;4796825;29;20043;-72